Weather at Morón Airport

Public forecast

Using degrees Celsius for public forecast. Weather courtesy of forecast.io.

Closest aviation weather report (METAR) to Morón Airport

Closest report is Minister Pistarini International Airport, 10.2 nm (18.9 km) SSE.

2024/05/30 21:00 (retrieved 1 hour ago)

SAEZ 302100Z 12003KT 9999 SCT048 13/09 Q1023 NOSIG

Closest aviation forecast (TAF) to Morón Airport

Closest forecast is Minister Pistarini International Airport, 10.2 nm (18.9 km) SSE.

2024/05/30 18:03 (retrieved 4 hours ago)

TAF SAEZ 301700Z 3018/3118 VRB05KT 9999 SCT030 BKN050 TX17/3018Z TN10/3109Z BECMG 3100/3103 CAVOK PROB30 3106/3112 5000 BR BKN010 BKN030 BECMG 3113/3115 02010KT 9999 SCT040 BKN060